sensor_id;sensor_type;location;lat;lon;timestamp;temperature;humidity
48454;DHT22;34261;55.678;12.464;2023-01-24T00:01:49;4.40;99.90
48454;DHT22;34261;55.678;12.464;2023-01-24T00:04:15;4.40;99.90
48454;DHT22;34261;55.678;12.464;2023-01-24T00:06:40;4.40;99.90
48454;DHT22;34261;55.678;12.464;2023-01-24T00:09:05;4.50;99.90
48454;DHT22;34261;55.678;12.464;2023-01-24T00:11:31;4.50;99.90
48454;DHT22;34261;55.678;12.464;2023-01-24T00:13:56;4.40;99.90
48454;DHT22;34261;55.678;12.464;2023-01-24T00:16:22;4.40;99.90
48454;DHT22;34261;55.678;12.464;2023-01-24T00:18:48;4.40;99.90
48454;DHT22;34261;55.678;12.464;2023-01-24T00:21:14;4.30;99.90
48454;DHT22;34261;55.678;12.464;2023-01-24T00:23:41;4.30;99.90
48454;DHT22;34261;55.678;12.464;2023-01-24T00:26:06;4.30;99.90
48454;DHT22;34261;55.678;12.464;2023-01-24T00:28:32;4.30;99.90
48454;DHT22;34261;55.678;12.464;2023-01-24T00:30:58;4.30;99.90
48454;DHT22;34261;55.678;12.464;2023-01-24T00:33:24;4.30;99.90
48454;DHT22;34261;55.678;12.464;2023-01-24T00:35:50;4.40;99.90
48454;DHT22;34261;55.678;12.464;2023-01-24T00:38:16;4.30;99.90
48454;DHT22;34261;55.678;12.464;2023-01-24T00:40:41;4.30;99.90
48454;DHT22;34261;55.678;12.464;2023-01-24T00:43:07;4.20;99.90
48454;DHT22;34261;55.678;12.464;2023-01-24T00:45:34;4.30;99.90
48454;DHT22;34261;55.678;12.464;2023-01-24T00:48:00;4.30;99.90
48454;DHT22;34261;55.678;12.464;2023-01-24T00:50:25;4.20;99.90
48454;DHT22;34261;55.678;12.464;2023-01-24T00:52:51;4.20;99.90
48454;DHT22;34261;55.678;12.464;2023-01-24T00:55:16;4.20;99.90
48454;DHT22;34261;55.678;12.464;2023-01-24T00:57:42;4.30;99.90
48454;DHT22;34261;55.678;12.464;2023-01-24T01:00:07;4.30;99.90
48454;DHT22;34261;55.678;12.464;2023-01-24T01:02:33;4.40;99.90
48454;DHT22;34261;55.678;12.464;2023-01-24T01:04:58;4.40;99.90
48454;DHT22;34261;55.678;12.464;2023-01-24T01:07:24;4.30;99.90
48454;DHT22;34261;55.678;12.464;2023-01-24T01:09:50;4.30;99.90
48454;DHT22;34261;55.678;12.464;2023-01-24T01:12:15;4.40;99.90
48454;DHT22;34261;55.678;12.464;2023-01-24T01:14:40;4.40;99.90
48454;DHT22;34261;55.678;12.464;2023-01-24T01:17:06;4.50;99.90
48454;DHT22;34261;55.678;12.464;2023-01-24T01:19:31;4.50;99.90
48454;DHT22;34261;55.678;12.464;2023-01-24T01:21:57;4.50;99.90
48454;DHT22;34261;55.678;12.464;2023-01-24T01:24:22;4.50;99.90
48454;DHT22;34261;55.678;12.464;2023-01-24T01:26:48;4.40;99.90
48454;DHT22;34261;55.678;12.464;2023-01-24T01:29:13;4.30;99.90
48454;DHT22;34261;55.678;12.464;2023-01-24T01:31:39;4.20;99.90
48454;DHT22;34261;55.678;12.464;2023-01-24T01:34:04;4.20;99.90
48454;DHT22;34261;55.678;12.464;2023-01-24T01:36:29;4.20;99.90
48454;DHT22;34261;55.678;12.464;2023-01-24T01:38:55;4.20;99.90
48454;DHT22;34261;55.678;12.464;2023-01-24T01:41:20;4.10;99.90
48454;DHT22;34261;55.678;12.464;2023-01-24T01:43:46;4.10;99.90
48454;DHT22;34261;55.678;12.464;2023-01-24T01:46:34;4.00;99.90
48454;DHT22;34261;55.678;12.464;2023-01-24T01:49:02;4.00;99.90
48454;DHT22;34261;55.678;12.464;2023-01-24T01:52:03;4.00;99.90
48454;DHT22;34261;55.678;12.464;2023-01-24T01:54:23;4.00;99.90
48454;DHT22;34261;55.678;12.464;2023-01-24T01:56:52;3.90;99.90
48454;DHT22;34261;55.678;12.464;2023-01-24T01:59:22;3.80;99.90
48454;DHT22;34261;55.678;12.464;2023-01-24T02:01:49;3.80;99.90
48454;DHT22;34261;55.678;12.464;2023-01-24T02:04:20;3.70;99.90
48454;DHT22;34261;55.678;12.464;2023-01-24T02:07:06;3.80;99.90
48454;DHT22;34261;55.678;12.464;2023-01-24T02:09:34;3.90;99.90
48454;DHT22;34261;55.678;12.464;2023-01-24T02:12:03;3.90;99.90
48454;DHT22;34261;55.678;12.464;2023-01-24T02:14:29;3.90;99.90
48454;DHT22;34261;55.678;12.464;2023-01-24T02:17:18;3.90;99.90
48454;DHT22;34261;55.678;12.464;2023-01-24T02:25:04;4.00;99.90
48454;DHT22;34261;55.678;12.464;2023-01-24T02:27:31;3.90;99.90
48454;DHT22;34261;55.678;12.464;2023-01-24T02:29:57;3.80;99.90
48454;DHT22;34261;55.678;12.464;2023-01-24T02:32:23;3.90;99.90
48454;DHT22;34261;55.678;12.464;2023-01-24T02:34:48;4.00;99.90
48454;DHT22;34261;55.678;12.464;2023-01-24T02:37:14;4.00;99.90
48454;DHT22;34261;55.678;12.464;2023-01-24T02:42:25;4.10;99.90
48454;DHT22;34261;55.678;12.464;2023-01-24T02:47:35;4.10;99.90
48454;DHT22;34261;55.678;12.464;2023-01-24T02:50:02;4.00;99.90
48454;DHT22;34261;55.678;12.464;2023-01-24T02:52:28;3.90;99.90
48454;DHT22;34261;55.678;12.464;2023-01-24T02:55:12;3.90;99.90
48454;DHT22;34261;55.678;12.464;2023-01-24T02:57:37;3.70;99.90
48454;DHT22;34261;55.678;12.464;2023-01-24T03:00:22;3.70;99.90
48454;DHT22;34261;55.678;12.464;2023-01-24T03:02:47;3.70;99.90
48454;DHT22;34261;55.678;12.464;2023-01-24T03:05:13;3.70;99.90
48454;DHT22;34261;55.678;12.464;2023-01-24T03:07:38;3.80;99.90
48454;DHT22;34261;55.678;12.464;2023-01-24T03:10:10;3.90;99.90
48454;DHT22;34261;55.678;12.464;2023-01-24T03:12:36;3.80;99.90
48454;DHT22;34261;55.678;12.464;2023-01-24T03:15:20;3.80;99.90
48454;DHT22;34261;55.678;12.464;2023-01-24T03:18:04;3.70;99.90
48454;DHT22;34261;55.678;12.464;2023-01-24T03:20:48;3.80;99.90
48454;DHT22;34261;55.678;12.464;2023-01-24T03:23:32;3.70;99.90
48454;DHT22;34261;55.678;12.464;2023-01-24T03:26:16;3.80;99.90
48454;DHT22;34261;55.678;12.464;2023-01-24T03:29:00;3.80;99.90
48454;DHT22;34261;55.678;12.464;2023-01-24T03:31:44;3.70;99.90
48454;DHT22;34261;55.678;12.464;2023-01-24T03:34:29;3.60;99.90
48454;DHT22;34261;55.678;12.464;2023-01-24T03:36:54;3.50;99.90
48454;DHT22;34261;55.678;12.464;2023-01-24T03:42:26;3.50;99.90
48454;DHT22;34261;55.678;12.464;2023-01-24T03:44:52;3.60;99.90
48454;DHT22;34261;55.678;12.464;2023-01-24T03:50:22;3.60;99.90
48454;DHT22;34261;55.678;12.464;2023-01-24T03:53:07;3.50;99.90
48454;DHT22;34261;55.678;12.464;2023-01-24T03:55:32;3.60;99.90
48454;DHT22;34261;55.678;12.464;2023-01-24T04:00:33;3.50;99.90
48454;DHT22;34261;55.678;12.464;2023-01-24T04:02:59;3.50;99.90
48454;DHT22;34261;55.678;12.464;2023-01-24T04:05:25;3.50;99.90
48454;DHT22;34261;55.678;12.464;2023-01-24T04:10:44;3.40;99.90
48454;DHT22;34261;55.678;12.464;2023-01-24T04:13:10;3.50;99.90
48454;DHT22;34261;55.678;12.464;2023-01-24T04:15:36;3.40;99.90
48454;DHT22;34261;55.678;12.464;2023-01-24T04:18:02;3.40;99.90
48454;DHT22;34261;55.678;12.464;2023-01-24T04:20:29;3.30;99.90
48454;DHT22;34261;55.678;12.464;2023-01-24T04:22:55;3.20;99.90
48454;DHT22;34261;55.678;12.464;2023-01-24T04:25:20;3.30;99.90
48454;DHT22;34261;55.678;12.464;2023-01-24T04:27:46;3.40;99.90
48454;DHT22;34261;55.678;12.464;2023-01-24T04:30:12;3.40;99.90
48454;DHT22;34261;55.678;12.464;2023-01-24T04:32:38;3.50;99.90
48454;DHT22;34261;55.678;12.464;2023-01-24T04:35:04;3.50;99.90
48454;DHT22;34261;55.678;12.464;2023-01-24T04:37:30;3.50;99.90
48454;DHT22;34261;55.678;12.464;2023-01-24T04:39:55;3.50;99.90
48454;DHT22;34261;55.678;12.464;2023-01-24T04:42:21;3.40;99.90
48454;DHT22;34261;55.678;12.464;2023-01-24T04:44:47;3.40;99.90
48454;DHT22;34261;55.678;12.464;2023-01-24T04:47:12;3.30;99.90
48454;DHT22;34261;55.678;12.464;2023-01-24T04:49:37;3.40;99.90
48454;DHT22;34261;55.678;12.464;2023-01-24T04:52:03;3.30;99.90
48454;DHT22;34261;55.678;12.464;2023-01-24T04:54:28;3.20;99.90
48454;DHT22;34261;55.678;12.464;2023-01-24T04:56:54;3.20;99.90
48454;DHT22;34261;55.678;12.464;2023-01-24T04:59:20;3.30;99.90
48454;DHT22;34261;55.678;12.464;2023-01-24T05:01:45;3.30;99.90
48454;DHT22;34261;55.678;12.464;2023-01-24T05:04:11;3.20;99.90
48454;DHT22;34261;55.678;12.464;2023-01-24T05:06:36;3.30;99.90
48454;DHT22;34261;55.678;12.464;2023-01-24T05:09:02;3.30;99.90
48454;DHT22;34261;55.678;12.464;2023-01-24T05:11:28;3.40;99.90
48454;DHT22;34261;55.678;12.464;2023-01-24T05:13:53;3.30;99.90
48454;DHT22;34261;55.678;12.464;2023-01-24T05:16:18;3.40;99.90
48454;DHT22;34261;55.678;12.464;2023-01-24T05:18:44;3.50;99.90
48454;DHT22;34261;55.678;12.464;2023-01-24T05:21:10;3.50;99.90
48454;DHT22;34261;55.678;12.464;2023-01-24T05:23:36;3.30;99.90
48454;DHT22;34261;55.678;12.464;2023-01-24T05:26:02;3.40;99.90
48454;DHT22;34261;55.678;12.464;2023-01-24T05:28:28;3.40;99.90
48454;DHT22;34261;55.678;12.464;2023-01-24T05:30:57;3.40;99.90
48454;DHT22;34261;55.678;12.464;2023-01-24T05:33:23;3.50;99.90
48454;DHT22;34261;55.678;12.464;2023-01-24T05:35:48;3.50;99.90
48454;DHT22;34261;55.678;12.464;2023-01-24T05:38:13;3.40;99.90
48454;DHT22;34261;55.678;12.464;2023-01-24T05:40:39;3.50;99.90
48454;DHT22;34261;55.678;12.464;2023-01-24T05:43:05;3.60;99.90
48454;DHT22;34261;55.678;12.464;2023-01-24T05:45:30;3.60;99.90
48454;DHT22;34261;55.678;12.464;2023-01-24T05:47:56;3.50;99.90
48454;DHT22;34261;55.678;12.464;2023-01-24T05:50:21;3.50;99.90
48454;DHT22;34261;55.678;12.464;2023-01-24T05:52:47;3.40;99.90
48454;DHT22;34261;55.678;12.464;2023-01-24T05:55:12;3.20;99.90
48454;DHT22;34261;55.678;12.464;2023-01-24T05:57:37;3.20;99.90
48454;DHT22;34261;55.678;12.464;2023-01-24T06:00:04;3.20;99.90
48454;DHT22;34261;55.678;12.464;2023-01-24T06:02:30;3.30;99.90
48454;DHT22;34261;55.678;12.464;2023-01-24T06:04:55;3.20;99.90
48454;DHT22;34261;55.678;12.464;2023-01-24T06:07:20;3.20;99.90
48454;DHT22;34261;55.678;12.464;2023-01-24T06:09:46;3.30;99.90
48454;DHT22;34261;55.678;12.464;2023-01-24T06:12:11;3.40;99.90
48454;DHT22;34261;55.678;12.464;2023-01-24T06:14:37;3.40;99.90
48454;DHT22;34261;55.678;12.464;2023-01-24T06:17:02;3.40;99.90
48454;DHT22;34261;55.678;12.464;2023-01-24T06:19:29;3.50;99.90
48454;DHT22;34261;55.678;12.464;2023-01-24T06:24:21;3.60;99.90
48454;DHT22;34261;55.678;12.464;2023-01-24T06:26:47;3.50;99.90
48454;DHT22;34261;55.678;12.464;2023-01-24T06:29:13;3.50;99.90
48454;DHT22;34261;55.678;12.464;2023-01-24T06:34:21;3.60;99.90
48454;DHT22;34261;55.678;12.464;2023-01-24T06:39:30;3.60;99.90
48454;DHT22;34261;55.678;12.464;2023-01-24T06:41:56;3.60;99.90
48454;DHT22;34261;55.678;12.464;2023-01-24T06:44:22;3.70;99.90
48454;DHT22;34261;55.678;12.464;2023-01-24T06:46:47;3.70;99.90
48454;DHT22;34261;55.678;12.464;2023-01-24T06:49:13;3.70;99.90
48454;DHT22;34261;55.678;12.464;2023-01-24T06:51:38;3.80;99.90
48454;DHT22;34261;55.678;12.464;2023-01-24T06:54:03;3.90;99.90
48454;DHT22;34261;55.678;12.464;2023-01-24T07:02:09;3.90;99.90
48454;DHT22;34261;55.678;12.464;2023-01-24T07:04:35;3.90;99.90
48454;DHT22;34261;55.678;12.464;2023-01-24T07:07:06;3.90;99.90
48454;DHT22;34261;55.678;12.464;2023-01-24T07:09:33;3.80;99.90
48454;DHT22;34261;55.678;12.464;2023-01-24T07:12:03;3.90;99.90
48454;DHT22;34261;55.678;12.464;2023-01-24T07:15:15;4.00;99.90
48454;DHT22;34261;55.678;12.464;2023-01-24T07:21:37;4.00;99.90
48454;DHT22;34261;55.678;12.464;2023-01-24T07:24:04;4.00;99.90
48454;DHT22;34261;55.678;12.464;2023-01-24T07:26:34;4.00;99.90
48454;DHT22;34261;55.678;12.464;2023-01-24T07:29:01;4.00;99.90
48454;DHT22;34261;55.678;12.464;2023-01-24T07:31:28;4.00;99.90
48454;DHT22;34261;55.678;12.464;2023-01-24T07:33:54;4.00;99.90
48454;DHT22;34261;55.678;12.464;2023-01-24T07:36:22;3.90;99.90
48454;DHT22;34261;55.678;12.464;2023-01-24T07:38:52;3.80;99.90
48454;DHT22;34261;55.678;12.464;2023-01-24T07:41:19;3.80;99.90
48454;DHT22;34261;55.678;12.464;2023-01-24T07:43:52;3.80;99.90
48454;DHT22;34261;55.678;12.464;2023-01-24T07:46:19;3.70;99.90
48454;DHT22;34261;55.678;12.464;2023-01-24T07:48:46;3.70;99.90
48454;DHT22;34261;55.678;12.464;2023-01-24T08:04:09;3.70;99.90
48454;DHT22;34261;55.678;12.464;2023-01-24T08:06:35;3.80;99.90
48454;DHT22;34261;55.678;12.464;2023-01-24T08:09:00;3.90;99.90
48454;DHT22;34261;55.678;12.464;2023-01-24T08:11:26;3.80;99.90
48454;DHT22;34261;55.678;12.464;2023-01-24T08:13:51;3.80;99.90
48454;DHT22;34261;55.678;12.464;2023-01-24T08:16:17;3.80;99.90
48454;DHT22;34261;55.678;12.464;2023-01-24T08:18:42;3.80;99.90
48454;DHT22;34261;55.678;12.464;2023-01-24T08:21:09;3.80;99.90
48454;DHT22;34261;55.678;12.464;2023-01-24T08:23:35;3.80;99.90
48454;DHT22;34261;55.678;12.464;2023-01-24T08:26:01;3.80;99.90
48454;DHT22;34261;55.678;12.464;2023-01-24T08:28:26;3.70;99.90
48454;DHT22;34261;55.678;12.464;2023-01-24T08:30:52;3.70;99.90
48454;DHT22;34261;55.678;12.464;2023-01-24T08:33:18;3.70;99.90
48454;DHT22;34261;55.678;12.464;2023-01-24T08:35:44;3.80;99.90
48454;DHT22;34261;55.678;12.464;2023-01-24T08:38:10;3.80;99.90
48454;DHT22;34261;55.678;12.464;2023-01-24T08:40:36;3.70;99.90
48454;DHT22;34261;55.678;12.464;2023-01-24T08:43:01;3.80;99.90
48454;DHT22;34261;55.678;12.464;2023-01-24T08:45:27;3.70;99.90
48454;DHT22;34261;55.678;12.464;2023-01-24T08:47:52;3.80;99.90
48454;DHT22;34261;55.678;12.464;2023-01-24T08:50:18;3.80;99.90
48454;DHT22;34261;55.678;12.464;2023-01-24T08:52:45;3.90;99.90
48454;DHT22;34261;55.678;12.464;2023-01-24T08:55:10;3.90;99.90
48454;DHT22;34261;55.678;12.464;2023-01-24T08:57:37;3.90;99.90
48454;DHT22;34261;55.678;12.464;2023-01-24T09:00:03;3.90;99.90
48454;DHT22;34261;55.678;12.464;2023-01-24T09:02:29;3.90;99.90
48454;DHT22;34261;55.678;12.464;2023-01-24T09:04:57;3.90;99.90
48454;DHT22;34261;55.678;12.464;2023-01-24T09:07:23;3.90;99.90
48454;DHT22;34261;55.678;12.464;2023-01-24T09:09:49;4.00;99.90
48454;DHT22;34261;55.678;12.464;2023-01-24T09:12:14;3.90;99.90
48454;DHT22;34261;55.678;12.464;2023-01-24T09:14:40;4.10;99.90
48454;DHT22;34261;55.678;12.464;2023-01-24T09:17:05;4.20;99.90
48454;DHT22;34261;55.678;12.464;2023-01-24T09:19:30;4.20;99.90
48454;DHT22;34261;55.678;12.464;2023-01-24T09:21:56;4.20;99.90
48454;DHT22;34261;55.678;12.464;2023-01-24T09:24:22;4.10;99.90
48454;DHT22;34261;55.678;12.464;2023-01-24T09:26:48;4.00;99.90
48454;DHT22;34261;55.678;12.464;2023-01-24T09:29:13;3.90;99.90
48454;DHT22;34261;55.678;12.464;2023-01-24T09:31:39;4.00;99.90
48454;DHT22;34261;55.678;12.464;2023-01-24T09:34:04;3.90;99.90
48454;DHT22;34261;55.678;12.464;2023-01-24T09:36:30;3.90;99.90
48454;DHT22;34261;55.678;12.464;2023-01-24T09:38:56;3.90;99.90
48454;DHT22;34261;55.678;12.464;2023-01-24T09:44:13;4.00;99.90
48454;DHT22;34261;55.678;12.464;2023-01-24T09:46:41;4.00;99.90
48454;DHT22;34261;55.678;12.464;2023-01-24T09:49:15;3.90;99.90
48454;DHT22;34261;55.678;12.464;2023-01-24T09:51:46;3.90;99.90
48454;DHT22;34261;55.678;12.464;2023-01-24T09:57:30;4.10;99.90
48454;DHT22;34261;55.678;12.464;2023-01-24T15:58:08;4.00;99.90
48454;DHT22;34261;55.678;12.464;2023-01-24T16:00:35;4.00;99.90
48454;DHT22;34261;55.678;12.464;2023-01-24T16:03:01;4.00;99.90
48454;DHT22;34261;55.678;12.464;2023-01-24T16:05:27;3.90;99.90
48454;DHT22;34261;55.678;12.464;2023-01-24T16:07:54;3.70;99.90
48454;DHT22;34261;55.678;12.464;2023-01-24T16:10:20;3.70;99.90
48454;DHT22;34261;55.678;12.464;2023-01-24T16:12:45;3.60;99.90
48454;DHT22;34261;55.678;12.464;2023-01-24T16:15:15;3.50;99.90
48454;DHT22;34261;55.678;12.464;2023-01-24T16:17:41;3.40;99.90
48454;DHT22;34261;55.678;12.464;2023-01-24T16:20:26;3.40;99.90
48454;DHT22;34261;55.678;12.464;2023-01-24T16:22:52;3.40;99.90
48454;DHT22;34261;55.678;12.464;2023-01-24T16:25:18;3.30;99.90
48454;DHT22;34261;55.678;12.464;2023-01-24T16:27:44;3.30;99.90
48454;DHT22;34261;55.678;12.464;2023-01-24T16:30:15;3.30;99.90
48454;DHT22;34261;55.678;12.464;2023-01-24T16:32:41;3.30;99.90
48454;DHT22;34261;55.678;12.464;2023-01-24T16:35:06;3.30;99.90
48454;DHT22;34261;55.678;12.464;2023-01-24T16:37:32;3.30;99.90
48454;DHT22;34261;55.678;12.464;2023-01-24T16:39:57;3.20;99.90
48454;DHT22;34261;55.678;12.464;2023-01-24T16:42:23;3.20;99.90
48454;DHT22;34261;55.678;12.464;2023-01-24T16:44:55;3.10;99.90
48454;DHT22;34261;55.678;12.464;2023-01-24T16:47:21;3.10;99.90
48454;DHT22;34261;55.678;12.464;2023-01-24T16:49:49;3.00;99.90
48454;DHT22;34261;55.678;12.464;2023-01-24T16:52:16;3.00;99.90
48454;DHT22;34261;55.678;12.464;2023-01-24T16:54:41;2.90;99.90
48454;DHT22;34261;55.678;12.464;2023-01-24T16:57:07;3.00;99.90
48454;DHT22;34261;55.678;12.464;2023-01-24T16:59:32;2.90;99.90
48454;DHT22;34261;55.678;12.464;2023-01-24T17:01:58;2.80;99.90
48454;DHT22;34261;55.678;12.464;2023-01-24T17:04:23;2.90;99.90
48454;DHT22;34261;55.678;12.464;2023-01-24T17:06:48;2.90;99.90
48454;DHT22;34261;55.678;12.464;2023-01-24T17:09:14;3.00;99.90
48454;DHT22;34261;55.678;12.464;2023-01-24T17:11:39;3.00;99.90
48454;DHT22;34261;55.678;12.464;2023-01-24T17:14:05;2.80;99.90
48454;DHT22;34261;55.678;12.464;2023-01-24T17:16:30;2.80;99.90
48454;DHT22;34261;55.678;12.464;2023-01-24T17:18:56;2.80;99.90
48454;DHT22;34261;55.678;12.464;2023-01-24T17:21:23;2.80;99.90
48454;DHT22;34261;55.678;12.464;2023-01-24T17:23:49;2.90;99.90
48454;DHT22;34261;55.678;12.464;2023-01-24T17:26:15;2.90;99.90
48454;DHT22;34261;55.678;12.464;2023-01-24T17:28:44;2.90;99.90
48454;DHT22;34261;55.678;12.464;2023-01-24T18:05:56;2.50;99.90
48454;DHT22;34261;55.678;12.464;2023-01-24T18:08:22;2.40;99.90
48454;DHT22;34261;55.678;12.464;2023-01-24T18:10:51;2.40;99.90
48454;DHT22;34261;55.678;12.464;2023-01-24T18:13:18;2.40;99.90
48454;DHT22;34261;55.678;12.464;2023-01-24T18:15:59;2.40;99.90
48454;DHT22;34261;55.678;12.464;2023-01-24T18:18:24;2.40;99.90
48454;DHT22;34261;55.678;12.464;2023-01-24T18:20:51;2.40;99.90
48454;DHT22;34261;55.678;12.464;2023-01-24T18:23:18;2.50;99.90
48454;DHT22;34261;55.678;12.464;2023-01-24T18:25:45;2.50;99.90
48454;DHT22;34261;55.678;12.464;2023-01-24T18:28:13;2.40;99.90
48454;DHT22;34261;55.678;12.464;2023-01-24T18:30:40;2.40;99.90
48454;DHT22;34261;55.678;12.464;2023-01-24T18:33:08;2.40;99.90
48454;DHT22;34261;55.678;12.464;2023-01-24T18:35:38;2.40;99.90
48454;DHT22;34261;55.678;12.464;2023-01-24T18:38:06;2.40;99.90
48454;DHT22;34261;55.678;12.464;2023-01-24T18:40:53;2.30;99.90
48454;DHT22;34261;55.678;12.464;2023-01-24T18:43:21;2.40;99.90
48454;DHT22;34261;55.678;12.464;2023-01-24T18:45:53;2.30;99.90
48454;DHT22;34261;55.678;12.464;2023-01-24T18:48:19;2.30;99.90
48454;DHT22;34261;55.678;12.464;2023-01-24T18:50:45;2.30;99.90
48454;DHT22;34261;55.678;12.464;2023-01-24T18:53:13;2.30;99.90
48454;DHT22;34261;55.678;12.464;2023-01-24T18:55:39;2.30;99.90
48454;DHT22;34261;55.678;12.464;2023-01-24T18:58:05;2.30;99.90
48454;DHT22;34261;55.678;12.464;2023-01-24T19:00:31;2.20;99.90
48454;DHT22;34261;55.678;12.464;2023-01-24T19:02:57;2.10;99.90
48454;DHT22;34261;55.678;12.464;2023-01-24T19:05:23;2.10;99.90
48454;DHT22;34261;55.678;12.464;2023-01-24T19:07:50;2.20;99.90
48454;DHT22;34261;55.678;12.464;2023-01-24T19:10:16;2.10;99.90
48454;DHT22;34261;55.678;12.464;2023-01-24T19:12:41;2.10;99.90
48454;DHT22;34261;55.678;12.464;2023-01-24T19:15:09;2.20;99.90
48454;DHT22;34261;55.678;12.464;2023-01-24T19:17:36;2.30;99.90
48454;DHT22;34261;55.678;12.464;2023-01-24T19:20:05;2.20;99.90
48454;DHT22;34261;55.678;12.464;2023-01-24T19:22:37;2.20;99.90
48454;DHT22;34261;55.678;12.464;2023-01-24T19:25:30;2.20;99.90
48454;DHT22;34261;55.678;12.464;2023-01-24T19:28:16;2.10;99.90
48454;DHT22;34261;55.678;12.464;2023-01-24T19:30:49;2.10;99.90
48454;DHT22;34261;55.678;12.464;2023-01-24T19:33:15;2.00;99.90
48454;DHT22;34261;55.678;12.464;2023-01-24T19:35:41;2.00;99.90
48454;DHT22;34261;55.678;12.464;2023-01-24T19:38:06;2.00;99.90
48454;DHT22;34261;55.678;12.464;2023-01-24T19:51:57;2.20;99.90
48454;DHT22;34261;55.678;12.464;2023-01-24T19:54:22;2.10;99.90
